sensor_id;sensor_type;location;lat;lon;timestamp;pressure;altitude;pressure_sealevel;temperature;humidity
16431;BME280;8325;49.284;7.238;2023-01-27T05:02:26;99105.34;;;0.21;100.00
16431;BME280;8325;49.284;7.238;2023-01-27T05:06:37;99109.97;;;0.16;100.00
16431;BME280;8325;49.284;7.238;2023-01-27T05:10:49;99108.59;;;0.25;100.00
16431;BME280;8325;49.284;7.238;2023-01-27T05:15:03;99110.31;;;0.25;100.00
16431;BME280;8325;49.284;7.238;2023-01-27T05:19:14;99115.44;;;0.25;100.00
16431;BME280;8325;49.284;7.238;2023-01-27T05:23:26;99114.00;;;0.20;100.00
16431;BME280;8325;49.284;7.238;2023-01-27T05:27:47;99122.88;;;0.29;100.00
16431;BME280;8325;49.284;7.238;2023-01-27T05:31:58;99128.09;;;0.28;100.00
16431;BME280;8325;49.284;7.238;2023-01-27T05:36:12;99137.19;;;0.33;100.00
16431;BME280;8325;49.284;7.238;2023-01-27T05:40:24;99135.34;;;0.35;100.00
16431;BME280;8325;49.284;7.238;2023-01-27T05:44:35;99137.44;;;0.43;100.00
16431;BME280;8325;49.284;7.238;2023-01-27T05:48:49;99144.91;;;0.33;100.00
16431;BME280;8325;49.284;7.238;2023-01-27T05:53:00;99141.88;;;0.41;100.00
16431;BME280;8325;49.284;7.238;2023-01-27T05:57:12;99151.13;;;0.43;100.00
16431;BME280;8325;49.284;7.238;2023-01-27T06:01:33;99147.06;;;0.54;100.00
16431;BME280;8325;49.284;7.238;2023-01-27T06:05:50;99155.59;;;0.54;100.00
16431;BME280;8325;49.284;7.238;2023-01-27T06:10:01;99157.00;;;0.45;100.00
16431;BME280;8325;49.284;7.238;2023-01-27T06:14:13;99163.31;;;0.40;100.00
16431;BME280;8325;49.284;7.238;2023-01-27T06:18:25;99163.53;;;0.37;100.00
16431;BME280;8325;49.284;7.238;2023-01-27T06:22:36;99162.44;;;0.41;100.00
16431;BME280;8325;49.284;7.238;2023-01-27T06:26:48;99155.09;;;0.35;100.00
16431;BME280;8325;49.284;7.238;2023-01-27T06:31:08;99153.72;;;0.29;100.00
16431;BME280;8325;49.284;7.238;2023-01-27T06:35:19;99162.25;;;0.30;100.00
16431;BME280;8325;49.284;7.238;2023-01-27T06:39:31;99159.88;;;0.27;100.00
16431;BME280;8325;49.284;7.238;2023-01-27T06:43:42;99171.06;;;0.26;100.00
16431;BME280;8325;49.284;7.238;2023-01-27T06:47:59;99169.69;;;0.20;100.00
16431;BME280;8325;49.284;7.238;2023-01-27T06:52:11;99175.47;;;0.23;100.00
16431;BME280;8325;49.284;7.238;2023-01-27T06:56:23;99174.53;;;0.25;100.00
16431;BME280;8325;49.284;7.238;2023-01-27T07:00:35;99181.53;;;0.22;100.00
16431;BME280;8325;49.284;7.238;2023-01-27T07:04:48;99176.94;;;0.28;100.00
16431;BME280;8325;49.284;7.238;2023-01-27T07:08:59;99193.66;;;0.20;100.00
16431;BME280;8325;49.284;7.238;2023-01-27T07:13:12;99198.91;;;0.19;100.00
16431;BME280;8325;49.284;7.238;2023-01-27T07:17:24;99207.31;;;0.21;100.00
16431;BME280;8325;49.284;7.238;2023-01-27T07:21:36;99206.56;;;0.33;100.00
16431;BME280;8325;49.284;7.238;2023-01-27T07:25:47;99208.63;;;0.28;100.00
16431;BME280;8325;49.284;7.238;2023-01-27T07:29:59;99216.22;;;0.30;100.00
16431;BME280;8325;49.284;7.238;2023-01-27T07:34:10;99219.44;;;0.19;100.00
16431;BME280;8325;49.284;7.238;2023-01-27T07:38:22;99217.97;;;0.29;100.00
16431;BME280;8325;49.284;7.238;2023-01-27T07:42:33;99221.34;;;0.30;100.00
16431;BME280;8325;49.284;7.238;2023-01-27T07:46:45;99220.91;;;0.23;100.00
16431;BME280;8325;49.284;7.238;2023-01-27T07:50:56;99218.91;;;0.28;100.00
16431;BME280;8325;49.284;7.238;2023-01-27T07:55:08;99220.53;;;0.29;100.00
16431;BME280;8325;49.284;7.238;2023-01-27T07:59:19;99232.91;;;0.37;100.00
16431;BME280;8325;49.284;7.238;2023-01-27T08:03:31;99230.16;;;0.40;100.00
16431;BME280;8325;49.284;7.238;2023-01-27T08:07:43;99214.72;;;0.54;100.00
16431;BME280;8325;49.284;7.238;2023-01-27T08:11:54;99224.38;;;0.51;100.00
16431;BME280;8325;49.284;7.238;2023-01-27T08:16:09;99227.38;;;0.72;100.00
16431;BME280;8325;49.284;7.238;2023-01-27T08:20:22;99229.22;;;0.55;100.00
16431;BME280;8325;49.284;7.238;2023-01-27T08:24:34;99234.84;;;0.89;100.00
16431;BME280;8325;49.284;7.238;2023-01-27T08:28:46;99238.97;;;0.91;100.00
16431;BME280;8325;49.284;7.238;2023-01-27T08:32:58;99242.69;;;0.87;100.00
16431;BME280;8325;49.284;7.238;2023-01-27T08:37:10;99236.09;;;0.83;100.00
16431;BME280;8325;49.284;7.238;2023-01-27T08:41:23;99240.00;;;0.89;100.00
16431;BME280;8325;49.284;7.238;2023-01-27T08:45:36;99244.25;;;0.90;100.00
16431;BME280;8325;49.284;7.238;2023-01-27T08:49:47;99242.44;;;0.78;100.00
16431;BME280;8325;49.284;7.238;2023-01-27T08:53:59;99251.50;;;0.83;100.00
16431;BME280;8325;49.284;7.238;2023-01-27T08:58:11;99258.19;;;0.86;100.00
16431;BME280;8325;49.284;7.238;2023-01-27T09:02:23;99262.75;;;0.95;100.00
16431;BME280;8325;49.284;7.238;2023-01-27T09:06:34;99267.91;;;0.95;100.00
16431;BME280;8325;49.284;7.238;2023-01-27T09:10:46;99266.81;;;0.99;100.00
16431;BME280;8325;49.284;7.238;2023-01-27T09:14:57;99273.59;;;1.00;100.00
16431;BME280;8325;49.284;7.238;2023-01-27T09:19:09;99278.38;;;1.06;100.00
16431;BME280;8325;49.284;7.238;2023-01-27T09:23:20;99292.16;;;1.05;99.47
16431;BME280;8325;49.284;7.238;2023-01-27T09:27:32;99293.06;;;1.04;99.87
16431;BME280;8325;49.284;7.238;2023-01-27T09:31:50;99284.69;;;1.15;100.00
16431;BME280;8325;49.284;7.238;2023-01-27T09:36:05;99296.53;;;1.45;100.00
16431;BME280;8325;49.284;7.238;2023-01-27T09:40:32;99305.72;;;1.22;100.00
16431;BME280;8325;49.284;7.238;2023-01-27T09:54:16;99313.16;;;1.26;100.00
16431;BME280;8325;49.284;7.238;2023-01-27T09:58:44;99316.13;;;1.20;100.00
16431;BME280;8325;49.284;7.238;2023-01-27T10:21:02;99305.69;;;1.36;99.70
16431;BME280;8325;49.284;7.238;2023-01-27T10:29:56;99306.81;;;1.45;98.21
16431;BME280;8325;49.284;7.238;2023-01-27T10:34:21;99304.03;;;1.48;96.92
16431;BME280;8325;49.284;7.238;2023-01-27T10:38:43;99308.34;;;1.34;98.09
16431;BME280;8325;49.284;7.238;2023-01-27T10:43:16;99298.34;;;1.30;98.11
16431;BME280;8325;49.284;7.238;2023-01-27T10:47:53;99289.19;;;1.38;97.69
16431;BME280;8325;49.284;7.238;2023-01-27T10:52:10;99286.34;;;1.43;97.72
16431;BME280;8325;49.284;7.238;2023-01-27T10:56:32;99291.09;;;1.49;97.60
16431;BME280;8325;49.284;7.238;2023-01-27T11:00:49;99283.38;;;1.49;98.26
16431;BME280;8325;49.284;7.238;2023-01-27T11:05:49;99291.09;;;1.49;97.73
16431;BME280;8325;49.284;7.238;2023-01-27T11:10:14;99285.41;;;1.44;98.49
16431;BME280;8325;49.284;7.238;2023-01-27T11:14:48;99277.41;;;1.49;98.27
16431;BME280;8325;49.284;7.238;2023-01-27T11:19:09;99277.13;;;1.66;99.45
16431;BME280;8325;49.284;7.238;2023-01-27T11:23:28;99276.28;;;1.66;98.46
16431;BME280;8325;49.284;7.238;2023-01-27T11:27:55;99265.19;;;1.78;97.98
16431;BME280;8325;49.284;7.238;2023-01-27T11:32:29;99260.16;;;1.89;97.71
16431;BME280;8325;49.284;7.238;2023-01-27T11:36:41;99264.03;;;1.69;98.43
16431;BME280;8325;49.284;7.238;2023-01-27T11:40:53;99270.03;;;1.70;97.28
16431;BME280;8325;49.284;7.238;2023-01-27T11:45:05;99263.41;;;1.66;98.72
16431;BME280;8325;49.284;7.238;2023-01-27T11:49:25;99263.75;;;1.74;98.30
16431;BME280;8325;49.284;7.238;2023-01-27T11:53:39;99263.50;;;1.51;99.29
16431;BME280;8325;49.284;7.238;2023-01-27T12:02:43;99266.69;;;1.42;100.00
16431;BME280;8325;49.284;7.238;2023-01-27T12:07:01;99268.19;;;1.45;100.00
16431;BME280;8325;49.284;7.238;2023-01-27T12:11:23;99264.63;;;1.60;100.00
16431;BME280;8325;49.284;7.238;2023-01-27T12:15:36;99270.94;;;1.69;100.00
16431;BME280;8325;49.284;7.238;2023-01-27T12:19:48;99269.69;;;1.61;100.00
16431;BME280;8325;49.284;7.238;2023-01-27T12:24:00;99269.50;;;1.65;100.00
16431;BME280;8325;49.284;7.238;2023-01-27T12:28:29;99261.41;;;1.83;98.76
16431;BME280;8325;49.284;7.238;2023-01-27T12:32:45;99247.88;;;1.67;100.00
16431;BME280;8325;49.284;7.238;2023-01-27T12:36:58;99258.28;;;1.66;99.50
16431;BME280;8325;49.284;7.238;2023-01-27T12:41:11;99256.56;;;1.79;98.79
16431;BME280;8325;49.284;7.238;2023-01-27T12:45:33;99247.69;;;1.70;99.21
16431;BME280;8325;49.284;7.238;2023-01-27T12:49:51;99251.19;;;1.82;98.53
16431;BME280;8325;49.284;7.238;2023-01-27T12:54:25;99246.47;;;1.76;99.32
16431;BME280;8325;49.284;7.238;2023-01-27T13:02:51;99236.56;;;1.70;99.50
16431;BME280;8325;49.284;7.238;2023-01-27T13:07:12;99240.97;;;1.68;100.00
16431;BME280;8325;49.284;7.238;2023-01-27T13:11:35;99243.53;;;1.55;100.00
16431;BME280;8325;49.284;7.238;2023-01-27T13:15:56;99240.34;;;1.51;100.00
16431;BME280;8325;49.284;7.238;2023-01-27T13:24:36;99251.75;;;1.47;100.00
16431;BME280;8325;49.284;7.238;2023-01-27T13:33:45;99268.09;;;1.33;100.00
16431;BME280;8325;49.284;7.238;2023-01-27T13:38:09;99261.91;;;1.36;100.00
16431;BME280;8325;49.284;7.238;2023-01-27T13:46:57;99262.53;;;1.40;100.00
16431;BME280;8325;49.284;7.238;2023-01-27T13:51:14;99265.53;;;1.46;100.00
16431;BME280;8325;49.284;7.238;2023-01-27T13:55:41;99272.91;;;1.38;100.00
16431;BME280;8325;49.284;7.238;2023-01-27T14:00:31;99266.56;;;1.44;100.00
16431;BME280;8325;49.284;7.238;2023-01-27T14:14:04;99272.13;;;1.50;100.00
16431;BME280;8325;49.284;7.238;2023-01-27T14:18:23;99276.28;;;1.53;100.00
16431;BME280;8325;49.284;7.238;2023-01-27T14:22:50;99273.59;;;1.54;99.38
16431;BME280;8325;49.284;7.238;2023-01-27T14:27:11;99274.13;;;1.59;98.82
16431;BME280;8325;49.284;7.238;2023-01-27T14:31:55;99274.44;;;1.68;99.43
16431;BME280;8325;49.284;7.238;2023-01-27T14:36:18;99281.56;;;1.64;100.00
16431;BME280;8325;49.284;7.238;2023-01-27T14:45:01;99285.38;;;1.71;99.09
16431;BME280;8325;49.284;7.238;2023-01-27T14:53:59;99291.75;;;1.66;99.20
16431;BME280;8325;49.284;7.238;2023-01-27T14:58:41;99291.75;;;1.66;99.24
16431;BME280;8325;49.284;7.238;2023-01-27T15:03:23;99296.03;;;1.52;99.96
16431;BME280;8325;49.284;7.238;2023-01-27T15:17:04;99303.06;;;1.63;99.86
16431;BME280;8325;49.284;7.238;2023-01-27T15:21:31;99308.34;;;1.61;100.00
16431;BME280;8325;49.284;7.238;2023-01-27T15:25:53;99316.66;;;1.52;99.66
16431;BME280;8325;49.284;7.238;2023-01-27T15:30:07;99331.69;;;1.58;100.00
16431;BME280;8325;49.284;7.238;2023-01-27T15:34:30;99336.44;;;1.52;99.99
16431;BME280;8325;49.284;7.238;2023-01-27T15:39:00;99333.03;;;1.51;99.10
16431;BME280;8325;49.284;7.238;2023-01-27T15:43:13;99325.94;;;1.55;98.96
16431;BME280;8325;49.284;7.238;2023-01-27T15:47:30;99331.06;;;1.55;99.41
16431;BME280;8325;49.284;7.238;2023-01-27T15:51:43;99344.34;;;1.49;99.90
16431;BME280;8325;49.284;7.238;2023-01-27T15:55:55;99348.66;;;1.48;99.71
16431;BME280;8325;49.284;7.238;2023-01-27T16:00:29;99347.81;;;1.48;100.00
16431;BME280;8325;49.284;7.238;2023-01-27T16:04:43;99346.47;;;1.42;100.00
16431;BME280;8325;49.284;7.238;2023-01-27T16:09:05;99355.84;;;1.43;100.00
16431;BME280;8325;49.284;7.238;2023-01-27T16:13:28;99352.25;;;1.46;100.00
16431;BME280;8325;49.284;7.238;2023-01-27T16:22:17;99362.94;;;1.40;100.00
16431;BME280;8325;49.284;7.238;2023-01-27T16:26:34;99363.38;;;1.46;100.00
16431;BME280;8325;49.284;7.238;2023-01-27T16:35:16;99370.72;;;1.52;100.00
16431;BME280;8325;49.284;7.238;2023-01-27T16:39:42;99366.31;;;1.54;100.00
16431;BME280;8325;49.284;7.238;2023-01-27T16:44:01;99370.72;;;1.52;100.00
16431;BME280;8325;49.284;7.238;2023-01-27T16:52:33;99367.59;;;1.47;100.00
16431;BME280;8325;49.284;7.238;2023-01-27T16:56:53;99374.84;;;1.55;100.00
16431;BME280;8325;49.284;7.238;2023-01-27T17:01:04;99375.88;;;1.52;100.00
16431;BME280;8325;49.284;7.238;2023-01-27T17:05:18;99381.94;;;1.51;100.00
16431;BME280;8325;49.284;7.238;2023-01-27T17:09:31;99384.41;;;1.53;100.00
16431;BME280;8325;49.284;7.238;2023-01-27T17:13:48;99388.53;;;1.55;100.00
16431;BME280;8325;49.284;7.238;2023-01-27T17:18:01;99394.91;;;1.50;100.00
16431;BME280;8325;49.284;7.238;2023-01-27T17:22:20;99402.56;;;1.51;100.00
16431;BME280;8325;49.284;7.238;2023-01-27T17:26:34;99401.69;;;1.51;100.00
16431;BME280;8325;49.284;7.238;2023-01-27T17:30:45;99401.88;;;1.48;100.00
16431;BME280;8325;49.284;7.238;2023-01-27T17:35:00;99399.63;;;1.43;100.00
16431;BME280;8325;49.284;7.238;2023-01-27T17:39:24;99399.22;;;1.49;100.00
16431;BME280;8325;49.284;7.238;2023-01-27T17:43:39;99407.88;;;1.48;100.00
16431;BME280;8325;49.284;7.238;2023-01-27T17:47:51;99415.41;;;1.51;100.00
16431;BME280;8325;49.284;7.238;2023-01-27T17:52:07;99421.09;;;1.56;100.00
16431;BME280;8325;49.284;7.238;2023-01-27T17:56:26;99422.28;;;1.51;100.00
16431;BME280;8325;49.284;7.238;2023-01-27T18:00:40;99427.72;;;1.60;100.00
16431;BME280;8325;49.284;7.238;2023-01-27T18:04:58;99421.28;;;1.53;100.00
16431;BME280;8325;49.284;7.238;2023-01-27T18:09:24;99418.00;;;1.51;100.00
16431;BME280;8325;49.284;7.238;2023-01-27T18:13:38;99423.78;;;1.55;100.00
16431;BME280;8325;49.284;7.238;2023-01-27T18:17:57;99429.56;;;1.58;100.00
16431;BME280;8325;49.284;7.238;2023-01-27T18:22:14;99428.81;;;1.56;100.00
16431;BME280;8325;49.284;7.238;2023-01-27T18:26:31;99425.78;;;1.64;100.00
16431;BME280;8325;49.284;7.238;2023-01-27T18:30:48;99436.47;;;1.58;100.00
16431;BME280;8325;49.284;7.238;2023-01-27T18:35:01;99439.47;;;1.65;100.00
16431;BME280;8325;49.284;7.238;2023-01-27T18:39:42;99443.88;;;1.63;100.00
16431;BME280;8325;49.284;7.238;2023-01-27T18:43:54;99442.63;;;1.55;100.00
16431;BME280;8325;49.284;7.238;2023-01-27T18:48:13;99449.78;;;1.65;100.00
16431;BME280;8325;49.284;7.238;2023-01-27T18:52:25;99448.78;;;1.67;100.00
16431;BME280;8325;49.284;7.238;2023-01-27T18:56:36;99450.97;;;1.73;100.00
16431;BME280;8325;49.284;7.238;2023-01-27T19:00:49;99456.00;;;1.75;100.00
16431;BME280;8325;49.284;7.238;2023-01-27T19:05:03;99449.03;;;1.77;100.00
16431;BME280;8325;49.284;7.238;2023-01-27T19:09:17;99447.69;;;1.84;100.00
16431;BME280;8325;49.284;7.238;2023-01-27T19:13:28;99464.72;;;1.87;100.00
16431;BME280;8325;49.284;7.238;2023-01-27T19:17:41;99461.13;;;1.89;100.00
16431;BME280;8325;49.284;7.238;2023-01-27T19:21:53;99453.28;;;1.91;100.00
16431;BME280;8325;49.284;7.238;2023-01-27T19:26:13;99458.56;;;1.89;100.00
16431;BME280;8325;49.284;7.238;2023-01-27T19:30:30;99459.00;;;1.81;100.00
16431;BME280;8325;49.284;7.238;2023-01-27T19:34:48;99464.47;;;1.77;100.00
16431;BME280;8325;49.284;7.238;2023-01-27T19:39:11;99461.78;;;1.78;100.00
16431;BME280;8325;49.284;7.238;2023-01-27T19:43:23;99467.59;;;1.82;100.00
16431;BME280;8325;49.284;7.238;2023-01-27T19:47:35;99466.47;;;1.86;100.00
16431;BME280;8325;49.284;7.238;2023-01-27T19:51:46;99470.59;;;1.89;100.00
16431;BME280;8325;49.284;7.238;2023-01-27T19:55:58;99473.19;;;1.89;100.00
16431;BME280;8325;49.284;7.238;2023-01-27T20:00:19;99481.81;;;1.88;100.00
16431;BME280;8325;49.284;7.238;2023-01-27T20:04:31;99485.25;;;1.88;100.00
16431;BME280;8325;49.284;7.238;2023-01-27T20:08:43;99487.81;;;1.88;100.00
16431;BME280;8325;49.284;7.238;2023-01-27T20:12:58;99482.75;;;1.87;100.00
16431;BME280;8325;49.284;7.238;2023-01-27T20:17:10;99489.47;;;1.89;100.00
16431;BME280;8325;49.284;7.238;2023-01-27T20:21:22;99488.66;;;1.89;100.00
16431;BME280;8325;49.284;7.238;2023-01-27T20:25:35;99484.41;;;1.88;100.00
16431;BME280;8325;49.284;7.238;2023-01-27T20:29:46;99486.78;;;1.91;100.00
16431;BME280;8325;49.284;7.238;2023-01-27T20:33:58;99487.81;;;1.88;100.00
16431;BME280;8325;49.284;7.238;2023-01-27T20:38:10;99496.25;;;1.90;100.00
16431;BME280;8325;49.284;7.238;2023-01-27T20:42:22;99487.63;;;1.91;100.00
16431;BME280;8325;49.284;7.238;2023-01-27T20:46:33;99482.47;;;1.91;100.00
16431;BME280;8325;49.284;7.238;2023-01-27T20:50:45;99481.00;;;1.87;100.00
16431;BME280;8325;49.284;7.238;2023-01-27T20:54:56;99487.81;;;1.88;100.00
16431;BME280;8325;49.284;7.238;2023-01-27T20:59:07;99486.16;;;1.87;100.00
16431;BME280;8325;49.284;7.238;2023-01-27T21:03:19;99490.47;;;1.87;100.00
16431;BME280;8325;49.284;7.238;2023-01-27T21:07:32;99488.28;;;1.80;100.00
16431;BME280;8325;49.284;7.238;2023-01-27T21:11:43;99487.53;;;1.78;100.00
16431;BME280;8325;49.284;7.238;2023-01-27T21:15:55;99496.31;;;1.76;100.00
16431;BME280;8325;49.284;7.238;2023-01-27T21:20:09;99485.16;;;1.75;100.00
16431;BME280;8325;49.284;7.238;2023-01-27T21:24:21;99493.34;;;1.82;100.00
16431;BME280;8325;49.284;7.238;2023-01-27T21:28:34;99489.84;;;1.83;100.00
16431;BME280;8325;49.284;7.238;2023-01-27T21:32:46;99496.47;;;1.87;100.00
16431;BME280;8325;49.284;7.238;2023-01-27T21:36:57;99499.34;;;1.82;100.00
16431;BME280;8325;49.284;7.238;2023-01-27T21:41:14;99490.03;;;1.80;100.00
16431;BME280;8325;49.284;7.238;2023-01-27T21:45:44;99494.13;;;1.70;100.00
16431;BME280;8325;49.284;7.238;2023-01-27T21:49:56;99492.84;;;1.48;100.00
16431;BME280;8325;49.284;7.238;2023-01-27T21:54:10;99502.03;;;1.52;100.00
16431;BME280;8325;49.284;7.238;2023-01-27T21:58:22;99496.50;;;1.58;100.00
16431;BME280;8325;49.284;7.238;2023-01-27T22:02:35;99496.22;;;1.63;100.00
16431;BME280;8325;49.284;7.238;2023-01-27T22:06:46;99496.69;;;1.55;100.00
16431;BME280;8325;49.284;7.238;2023-01-27T22:11:06;99513.28;;;1.51;100.00
16431;BME280;8325;49.284;7.238;2023-01-27T22:15:18;99508.69;;;1.42;100.00
16431;BME280;8325;49.284;7.238;2023-01-27T22:19:30;99502.59;;;1.43;100.00
16431;BME280;8325;49.284;7.238;2023-01-27T22:23:42;99507.75;;;1.43;100.00
16431;BME280;8325;49.284;7.238;2023-01-27T22:27:55;99505.34;;;1.40;100.00
